createdAt,value
2019-05-06T00:00:17.427Z,5.50
2019-05-06T00:02:46.427Z,5.50
2019-05-06T00:05:15.429Z,5.50
2019-05-06T00:07:53.918Z,5.60
2019-05-06T00:10:25.302Z,5.60
2019-05-06T00:12:54.444Z,5.50
2019-05-06T00:15:23.568Z,5.40
2019-05-06T00:17:53.941Z,5.40
2019-05-06T00:20:24.383Z,5.30
2019-05-06T00:22:56.547Z,5.40
2019-05-06T00:25:34.867Z,5.40
2019-05-06T00:28:24.271Z,5.30
2019-05-06T00:30:58.571Z,5.20
2019-05-06T00:33:25.119Z,5.20
2019-05-06T00:35:54.398Z,5.30
2019-05-06T00:38:24.661Z,5.40
2019-05-06T00:40:57.401Z,5.30
2019-05-06T00:43:26.318Z,5.40
2019-05-06T00:45:55.234Z,5.40
2019-05-06T00:48:24.497Z,5.40
2019-05-06T00:50:53.704Z,5.40
2019-05-06T00:53:24.657Z,5.40
2019-05-06T00:55:53.871Z,5.40
2019-05-06T00:58:23.902Z,5.50
2019-05-06T01:00:53.812Z,5.40
2019-05-06T01:03:23.910Z,5.40
2019-05-06T01:05:54.258Z,5.40
2019-05-06T01:08:24.113Z,5.30
2019-05-06T01:10:54.532Z,5.30
2019-05-06T01:13:58.277Z,5.30
2019-05-06T01:16:27.349Z,5.30
2019-05-06T01:18:56.359Z,5.30
2019-05-06T01:21:25.373Z,5.30
2019-05-06T01:23:54.612Z,5.30
2019-05-06T01:26:24.242Z,5.30
2019-05-06T01:28:54.554Z,5.30
2019-05-06T01:31:28.916Z,5.30
2019-05-06T01:33:55.177Z,5.30
2019-05-06T01:36:24.903Z,5.30
2019-05-06T01:39:00.163Z,5.30
2019-05-06T01:41:49.337Z,5.30
2019-05-06T01:44:18.628Z,5.30
2019-05-06T01:46:47.666Z,5.30
2019-05-06T01:49:16.577Z,5.30
2019-05-06T01:51:46.146Z,5.30
2019-05-06T01:54:15.737Z,5.30
2019-05-06T01:56:44.930Z,5.30
2019-05-06T01:59:14.231Z,5.30
2019-05-06T02:01:54.888Z,5.30
2019-05-06T02:04:14.357Z,5.30
2019-05-06T02:06:43.926Z,5.30
2019-05-06T02:09:15.925Z,5.30
2019-05-06T02:11:47.954Z,5.30
2019-05-06T02:14:16.558Z,5.30
2019-05-06T02:16:45.545Z,5.30
2019-05-06T02:19:14.904Z,5.30
2019-05-06T02:22:21.109Z,5.30
2019-05-06T02:25:13.828Z,5.30
2019-05-06T02:27:44.524Z,5.30
2019-05-06T02:30:30.752Z,5.30
2019-05-06T02:33:15.141Z,5.20
2019-05-06T02:35:50.713Z,5.20
2019-05-06T02:38:28.098Z,5.10
2019-05-06T02:40:55.453Z,5.20
2019-05-06T02:43:24.514Z,5.20
2019-05-06T02:45:53.407Z,5.20
2019-05-06T02:48:43.303Z,5.30
2019-05-06T02:51:15.842Z,5.30
2019-05-06T02:53:44.771Z,5.30
2019-05-06T02:56:13.792Z,5.20
2019-05-06T02:58:43.750Z,5.20
2019-05-06T03:01:13.520Z,5.20
2019-05-06T03:03:43.631Z,5.20
2019-05-06T03:06:13.254Z,5.20
2019-05-06T03:08:43.467Z,5.20
2019-05-06T03:11:13.753Z,5.10
2019-05-06T03:13:43.957Z,5.20
2019-05-06T03:16:14.226Z,5.20
2019-05-06T03:18:43.580Z,5.10
2019-05-06T03:21:36.678Z,5.10
2019-05-06T03:24:19.940Z,5.10
2019-05-06T03:26:56.106Z,5.00
2019-05-06T03:29:21.203Z,5.10
2019-05-06T03:31:55.679Z,4.90
2019-05-06T03:34:38.259Z,5.00
2019-05-06T03:36:56.255Z,5.00
2019-05-06T03:39:23.267Z,5.00
2019-05-06T03:41:53.689Z,5.00
2019-05-06T03:44:23.940Z,5.00
2019-05-06T03:47:13.650Z,5.00
2019-05-06T03:49:49.589Z,5.00
2019-05-06T03:52:15.734Z,5.00
2019-05-06T03:54:46.311Z,5.00
2019-05-06T03:57:15.327Z,5.00
2019-05-06T03:59:45.215Z,4.90
2019-05-06T04:02:14.582Z,5.00
2019-05-06T04:04:44.074Z,5.00
2019-05-06T04:07:14.044Z,5.00
2019-05-06T04:09:44.244Z,5.00
2019-05-06T04:12:14.063Z,5.00
2019-05-06T04:14:43.604Z,5.00
2019-05-06T04:17:23.733Z,5.10
2019-05-06T04:20:09.117Z,5.10
2019-05-06T04:22:46.394Z,5.10
2019-05-06T04:25:57.133Z,5.10
2019-05-06T04:28:29.437Z,5.00
2019-05-06T04:30:59.291Z,4.90
2019-05-06T04:33:28.315Z,4.80
2019-05-06T04:35:57.321Z,4.90
2019-05-06T04:38:26.425Z,4.90
2019-05-06T04:40:55.337Z,5.00
2019-05-06T04:43:26.860Z,5.00
2019-05-06T04:45:55.143Z,5.00
2019-05-06T04:48:24.583Z,5.00
2019-05-06T04:50:54.007Z,5.10
2019-05-06T04:53:26.848Z,5.10
2019-05-06T04:55:54.248Z,5.10
2019-05-06T04:58:23.791Z,5.00
2019-05-06T05:00:53.256Z,5.00
2019-05-06T05:03:23.033Z,5.00
2019-05-06T05:05:53.024Z,5.00
2019-05-06T05:08:26.304Z,5.00
2019-05-06T05:11:03.399Z,5.00
2019-05-06T05:13:53.212Z,4.90
2019-05-06T05:16:28.034Z,5.10
2019-05-06T05:19:02.647Z,5.10
2019-05-06T05:21:32.265Z,5.10
2019-05-06T05:24:02.040Z,5.20
2019-05-06T05:26:32.244Z,5.30
2019-05-06T05:29:02.859Z,5.30
2019-05-06T05:31:33.239Z,5.40
2019-05-06T05:34:02.478Z,5.40
2019-05-06T05:36:32.842Z,5.30
2019-05-06T05:39:03.387Z,5.40
2019-05-06T05:41:33.158Z,5.40
2019-05-06T05:44:12.028Z,5.50
2019-05-06T05:46:43.701Z,5.50
2019-05-06T05:49:32.328Z,5.30
2019-05-06T05:52:03.461Z,5.30
2019-05-06T05:54:33.196Z,5.40
2019-05-06T05:57:02.710Z,5.50
2019-05-06T05:59:32.891Z,5.60
2019-05-06T06:02:03.785Z,5.90
2019-05-06T06:04:32.981Z,5.90
2019-05-06T06:07:02.716Z,5.80
2019-05-06T06:09:35.189Z,5.90
2019-05-06T06:12:06.627Z,5.70
2019-05-06T06:14:56.048Z,5.70
2019-05-06T06:17:44.614Z,5.80
2019-05-06T06:20:32.715Z,5.90
2019-05-06T06:23:07.766Z,5.90
2019-05-06T06:25:37.327Z,6.00
2019-05-06T06:28:06.310Z,6.10
2019-05-06T06:30:43.409Z,6.20
2019-05-06T06:33:12.862Z,6.20
2019-05-06T06:35:51.521Z,6.30
2019-05-06T06:38:29.117Z,6.30
2019-05-06T06:40:58.114Z,6.20
2019-05-06T06:43:27.173Z,6.20
2019-05-06T06:45:56.103Z,6.30
2019-05-06T06:48:27.708Z,6.30
2019-05-06T06:50:55.847Z,6.30
2019-05-06T06:53:24.829Z,6.50
2019-05-06T06:56:02.826Z,6.70
2019-05-06T06:58:37.397Z,6.70
2019-05-06T07:01:18.625Z,6.80
2019-05-06T07:04:06.783Z,7.00
2019-05-06T07:06:47.701Z,7.20
2019-05-06T07:09:16.632Z,7.10
2019-05-06T07:11:45.825Z,7.10
2019-05-06T07:14:14.729Z,7.20
2019-05-06T07:16:43.649Z,7.30
2019-05-06T07:19:15.270Z,7.40
2019-05-06T07:21:53.840Z,7.90
2019-05-06T07:24:23.017Z,8.00
2019-05-06T07:26:56.684Z,8.10
2019-05-06T07:29:26.789Z,8.00
2019-05-06T07:31:56.353Z,8.10
2019-05-06T07:34:25.602Z,8.20
2019-05-06T07:36:54.701Z,8.20
2019-05-06T07:39:24.228Z,8.20
2019-05-06T07:41:56.705Z,8.30
2019-05-06T07:44:44.081Z,8.40
2019-05-06T07:47:26.662Z,8.40
2019-05-06T07:49:55.684Z,8.50
2019-05-06T07:52:24.606Z,8.50
2019-05-06T07:54:53.925Z,8.70
2019-05-06T07:57:23.028Z,8.70
2019-05-06T07:59:52.619Z,8.80
2019-05-06T08:02:22.887Z,9.00
2019-05-06T08:04:53.125Z,8.90
2019-05-06T08:07:22.634Z,8.90
2019-05-06T08:09:53.069Z,9.00
2019-05-06T08:12:22.523Z,9.10
2019-05-06T08:14:52.398Z,9.20
2019-05-06T08:17:42.334Z,9.20
2019-05-06T08:20:12.946Z,9.30
2019-05-06T08:22:47.116Z,9.40
2019-05-06T08:25:16.015Z,9.50
2019-05-06T08:27:45.309Z,9.40
2019-05-06T08:30:14.896Z,9.50
2019-05-06T08:32:43.862Z,9.50
2019-05-06T08:35:14.866Z,9.50
2019-05-06T08:37:43.886Z,9.30
2019-05-06T08:40:13.161Z,9.40
2019-05-06T08:42:42.687Z,9.50
2019-05-06T08:45:12.903Z,9.30
2019-05-06T08:47:42.497Z,9.40
2019-05-06T08:50:32.473Z,9.50
2019-05-06T08:53:15.525Z,9.60
2019-05-06T08:55:45.981Z,9.60
2019-05-06T08:58:15.193Z,9.40
2019-05-06T09:00:57.451Z,9.30
2019-05-06T09:03:25.470Z,9.40
2019-05-06T09:05:54.376Z,9.40
2019-05-06T09:08:24.862Z,9.50
2019-05-06T09:10:54.080Z,9.50
2019-05-06T09:13:23.329Z,9.60
2019-05-06T09:15:52.692Z,9.40
2019-05-06T09:18:23.933Z,9.40
2019-05-06T09:20:53.632Z,9.60
2019-05-06T09:23:22.831Z,9.60
2019-05-06T09:25:53.126Z,9.60
2019-05-06T09:28:44.389Z,9.70
2019-05-06T09:31:32.141Z,9.50
2019-05-06T09:34:08.142Z,9.50
2019-05-06T09:36:43.858Z,9.70
2019-05-06T09:39:08.209Z,9.70
2019-05-06T09:41:37.146Z,9.60
2019-05-06T09:44:06.235Z,9.90
2019-05-06T09:46:35.251Z,10.00
2019-05-06T09:49:23.334Z,9.70
2019-05-06T09:51:52.972Z,10.10
2019-05-06T09:54:28.537Z,10.60
2019-05-06T09:57:02.409Z,10.80
2019-05-06T09:59:32.217Z,10.50
2019-05-06T10:02:01.246Z,10.60
2019-05-06T10:04:32.389Z,10.60
2019-05-06T10:07:02.671Z,10.60
2019-05-06T10:09:32.645Z,10.50
2019-05-06T10:12:02.124Z,10.30
2019-05-06T10:14:32.204Z,10.20
2019-05-06T10:17:04.449Z,10.00
2019-05-06T10:19:32.201Z,10.00
2019-05-06T10:22:03.438Z,10.10
2019-05-06T10:24:32.352Z,10.20
2019-05-06T10:27:02.624Z,10.20
2019-05-06T10:29:38.048Z,10.30
2019-05-06T10:32:27.993Z,10.40
2019-05-06T10:34:57.024Z,10.50
2019-05-06T10:37:42.220Z,10.50
2019-05-06T10:40:25.922Z,10.50
2019-05-06T10:43:09.704Z,10.60
2019-05-06T10:45:38.713Z,10.70
2019-05-06T10:48:08.147Z,10.70
2019-05-06T10:50:43.060Z,11.00
2019-05-06T10:53:22.528Z,11.10
2019-05-06T10:55:55.016Z,11.10
2019-05-06T10:58:24.136Z,11.10
2019-05-06T11:01:12.523Z,11.20
2019-05-06T11:03:42.076Z,11.00
2019-05-06T11:06:13.114Z,11.00
2019-05-06T11:08:42.197Z,10.80
2019-05-06T11:11:15.569Z,10.70
2019-05-06T11:13:42.267Z,10.60
2019-05-06T11:16:12.948Z,10.40
2019-05-06T11:18:42.607Z,10.50
2019-05-06T11:21:12.781Z,10.20
2019-05-06T11:23:41.940Z,10.30
2019-05-06T11:26:13.010Z,10.40
2019-05-06T11:28:54.773Z,10.40
2019-05-06T11:31:33.226Z,10.50
2019-05-06T11:34:18.725Z,10.50
2019-05-06T11:37:05.643Z,10.40
2019-05-06T11:39:34.679Z,10.40
2019-05-06T11:42:23.841Z,10.40
2019-05-06T11:44:34.341Z,10.30
2019-05-06T11:47:03.541Z,10.40
2019-05-06T11:49:32.822Z,10.40
2019-05-06T11:52:02.519Z,10.70
2019-05-06T11:54:33.784Z,10.80
2019-05-06T11:57:03.837Z,11.00
2019-05-06T11:59:32.702Z,10.80
2019-05-06T12:02:04.240Z,10.80
2019-05-06T12:04:33.783Z,10.70
2019-05-06T12:07:11.162Z,10.80
2019-05-06T12:09:33.726Z,10.80
2019-05-06T12:12:03.432Z,10.80
2019-05-06T12:14:32.607Z,10.70
2019-05-06T12:17:02.348Z,10.90
2019-05-06T12:19:32.404Z,11.10
2019-05-06T12:22:01.643Z,11.20
2019-05-06T12:24:30.634Z,11.10
2019-05-06T12:26:59.478Z,11.10
2019-05-06T12:29:28.497Z,11.10
2019-05-06T12:32:16.870Z,10.90
2019-05-06T12:34:45.782Z,10.90
2019-05-06T12:37:17.498Z,10.70
2019-05-06T12:39:53.346Z,10.70
2019-05-06T12:42:28.164Z,10.60
2019-05-06T12:45:15.174Z,10.50
2019-05-06T12:47:54.818Z,10.60
2019-05-06T12:50:23.665Z,10.50
2019-05-06T12:52:52.910Z,10.40
2019-05-06T12:55:25.285Z,10.50
2019-05-06T12:57:54.279Z,10.70
2019-05-06T13:00:24.220Z,10.80
2019-05-06T13:02:53.507Z,10.80
2019-05-06T13:05:22.485Z,11.00
2019-05-06T13:07:52.703Z,11.20
2019-05-06T13:10:23.110Z,11.20
2019-05-06T13:13:04.459Z,11.20
2019-05-06T13:15:33.543Z,11.30
2019-05-06T13:18:07.239Z,11.40
2019-05-06T13:20:34.795Z,11.30
2019-05-06T13:23:15.878Z,11.40
2019-05-06T13:25:43.001Z,11.40
2019-05-06T13:28:13.145Z,11.20
2019-05-06T13:30:43.377Z,11.30
2019-05-06T13:33:24.970Z,11.50
2019-05-06T13:35:54.039Z,11.70
2019-05-06T13:38:23.041Z,11.60
2019-05-06T13:40:56.663Z,11.70
2019-05-06T13:43:40.382Z,11.70
2019-05-06T13:46:23.476Z,11.80
2019-05-06T13:49:13.364Z,11.90
2019-05-06T13:51:45.053Z,11.80
2019-05-06T13:54:16.140Z,11.90
2019-05-06T13:56:48.319Z,11.90
2019-05-06T13:59:15.655Z,12.00
2019-05-06T14:02:07.003Z,11.90
2019-05-06T14:04:34.662Z,11.80
2019-05-06T14:07:07.249Z,11.80
2019-05-06T14:09:39.953Z,11.90
2019-05-06T14:12:05.967Z,11.90
2019-05-06T14:14:35.122Z,11.90
2019-05-06T14:17:04.396Z,11.80
2019-05-06T14:19:33.593Z,11.80
2019-05-06T14:22:03.083Z,11.60
2019-05-06T14:24:33.284Z,11.60
2019-05-06T14:27:06.266Z,11.40
2019-05-06T14:29:43.464Z,11.10
2019-05-06T14:32:14.821Z,11.00
2019-05-06T14:34:43.474Z,11.00
2019-05-06T14:37:12.604Z,11.10
2019-05-06T14:39:53.872Z,10.90
2019-05-06T14:42:15.658Z,10.90
2019-05-06T14:44:44.658Z,10.90
2019-05-06T14:47:42.474Z,11.00
2019-05-06T14:50:14.567Z,11.00
2019-05-06T14:52:44.373Z,11.00
2019-05-06T14:55:22.600Z,11.00
2019-05-06T14:57:53.499Z,11.10
2019-05-06T15:00:23.096Z,11.00
2019-05-06T15:02:53.312Z,11.00
2019-05-06T15:05:22.845Z,11.00
2019-05-06T15:07:52.913Z,11.00
2019-05-06T15:10:25.584Z,11.00
2019-05-06T15:12:53.526Z,11.00
2019-05-06T15:15:22.969Z,11.00
2019-05-06T15:17:53.221Z,11.00
2019-05-06T15:20:22.965Z,10.90
2019-05-06T15:22:52.963Z,10.80
2019-05-06T15:25:22.271Z,10.80
2019-05-06T15:27:53.204Z,10.70
2019-05-06T15:30:29.575Z,10.70
2019-05-06T15:32:58.513Z,10.60
2019-05-06T15:35:49.266Z,10.50
2019-05-06T15:38:22.145Z,10.50
2019-05-06T15:40:52.544Z,10.60
2019-05-06T15:43:22.066Z,10.60
2019-05-06T15:45:52.674Z,10.60
2019-05-06T15:48:22.221Z,10.60
2019-05-06T15:50:53.296Z,10.50
2019-05-06T15:53:22.543Z,10.60
2019-05-06T15:55:53.479Z,10.50
2019-05-06T15:58:22.885Z,10.50
2019-05-06T16:00:53.203Z,10.60
2019-05-06T16:03:22.945Z,10.60
2019-05-06T16:05:55.101Z,10.60
2019-05-06T16:08:24.560Z,10.60
2019-05-06T16:10:58.423Z,10.50
2019-05-06T16:13:24.523Z,10.50
2019-05-06T16:15:53.729Z,10.60
2019-05-06T16:18:23.527Z,10.60
2019-05-06T16:20:52.638Z,10.60
2019-05-06T16:23:42.521Z,10.60
2019-05-06T16:26:12.327Z,10.60
2019-05-06T16:28:41.740Z,10.60
2019-05-06T16:31:13.013Z,10.60
2019-05-06T16:33:43.063Z,10.60
2019-05-06T16:36:13.186Z,10.60
2019-05-06T16:38:43.430Z,10.70
2019-05-06T16:41:15.718Z,10.70
2019-05-06T16:43:43.080Z,10.70
2019-05-06T16:46:12.667Z,10.60
2019-05-06T16:48:45.029Z,10.60
2019-05-06T16:51:12.965Z,10.50
2019-05-06T16:53:42.967Z,10.50
2019-05-06T16:56:18.954Z,10.50
2019-05-06T16:58:52.537Z,10.40
2019-05-06T17:01:22.181Z,10.30
2019-05-06T17:04:03.651Z,10.10
2019-05-06T17:06:37.464Z,10.00
2019-05-06T17:09:20.053Z,10.00
2019-05-06T17:11:39.849Z,10.00
2019-05-06T17:14:08.866Z,10.00
2019-05-06T17:16:38.113Z,10.00
2019-05-06T17:19:07.581Z,9.90
2019-05-06T17:21:37.001Z,9.80
2019-05-06T17:24:06.201Z,9.80
2019-05-06T17:26:35.290Z,9.80
2019-05-06T17:29:11.080Z,9.70
2019-05-06T17:32:02.645Z,9.70
2019-05-06T17:34:34.621Z,9.70
2019-05-06T17:37:09.910Z,9.70
2019-05-06T17:39:38.901Z,9.50
2019-05-06T17:42:07.832Z,9.60
2019-05-06T17:44:37.086Z,9.60
2019-05-06T17:47:13.674Z,9.60
2019-05-06T17:49:42.985Z,9.40
2019-05-06T17:52:18.386Z,9.40
2019-05-06T17:54:47.325Z,9.30
2019-05-06T17:57:16.455Z,9.30
2019-05-06T17:59:45.697Z,9.30
2019-05-06T18:02:19.302Z,9.30
2019-05-06T18:04:48.383Z,9.30
2019-05-06T18:07:17.250Z,9.30
2019-05-06T18:09:46.345Z,9.30
2019-05-06T18:12:15.205Z,9.20
2019-05-06T18:14:44.131Z,9.20
2019-05-06T18:17:13.450Z,9.20
2019-05-06T18:19:42.362Z,9.20
2019-05-06T18:22:13.162Z,9.10
2019-05-06T18:24:41.898Z,9.10
2019-05-06T18:27:13.110Z,9.00
2019-05-06T18:29:42.431Z,8.90
2019-05-06T18:32:12.675Z,8.90
2019-05-06T18:34:41.831Z,8.90
2019-05-06T18:37:12.704Z,8.90
2019-05-06T18:39:42.478Z,8.90
2019-05-06T18:42:19.226Z,8.80
2019-05-06T18:44:42.433Z,8.80
2019-05-06T18:47:12.266Z,8.80
2019-05-06T18:49:42.619Z,8.80
2019-05-06T18:52:13.180Z,8.80
2019-05-06T18:54:42.993Z,8.80
2019-05-06T18:57:12.996Z,8.80
2019-05-06T18:59:42.653Z,8.70
2019-05-06T19:02:13.219Z,8.70
2019-05-06T19:04:47.039Z,8.70
2019-05-06T19:07:17.196Z,8.70
2019-05-06T19:09:52.396Z,8.60
2019-05-06T19:12:30.326Z,8.60
2019-05-06T19:14:52.654Z,8.60
2019-05-06T19:17:24.414Z,8.60
2019-05-06T19:19:53.632Z,8.60
2019-05-06T19:22:23.571Z,8.60
2019-05-06T19:24:52.529Z,8.60
2019-05-06T19:27:24.618Z,8.50
2019-05-06T19:29:54.517Z,8.50
2019-05-06T19:32:23.117Z,8.50
2019-05-06T19:34:53.037Z,8.50
2019-05-06T19:37:23.348Z,8.50
2019-05-06T19:39:52.789Z,8.50
2019-05-06T19:42:22.439Z,8.50
2019-05-06T19:44:52.915Z,8.50
2019-05-06T19:47:22.064Z,8.50
2019-05-06T19:49:53.228Z,8.50
2019-05-06T19:52:21.830Z,8.50
2019-05-06T19:54:52.059Z,8.50
2019-05-06T19:57:21.142Z,8.40
2019-05-06T19:59:52.152Z,8.30
2019-05-06T20:02:25.489Z,8.40
2019-05-06T20:04:55.893Z,8.40
2019-05-06T20:07:36.346Z,8.30
2019-05-06T20:10:32.727Z,8.40
2019-05-06T20:13:05.394Z,8.40
2019-05-06T20:15:42.130Z,8.30
2019-05-06T20:18:11.340Z,8.30
2019-05-06T20:20:42.305Z,8.30
2019-05-06T20:23:12.508Z,8.20
2019-05-06T20:25:42.813Z,8.30
2019-05-06T20:28:13.255Z,8.30
2019-05-06T20:30:42.474Z,8.20
2019-05-06T20:33:12.484Z,8.20
2019-05-06T20:35:43.151Z,8.30
2019-05-06T20:38:12.464Z,8.20
2019-05-06T20:40:43.097Z,8.20
2019-05-06T20:43:20.053Z,8.30
2019-05-06T20:45:43.470Z,8.20
2019-05-06T20:48:13.043Z,8.10
2019-05-06T20:50:42.903Z,8.10
2019-05-06T20:53:12.364Z,8.10
2019-05-06T20:55:43.434Z,8.10
2019-05-06T20:58:12.504Z,8.10
2019-05-06T21:00:42.960Z,8.10
2019-05-06T21:03:12.514Z,8.10
2019-05-06T21:05:43.563Z,8.20
2019-05-06T21:08:13.081Z,8.20
2019-05-06T21:10:42.610Z,8.10
2019-05-06T21:13:13.367Z,8.10
2019-05-06T21:15:43.314Z,8.00
2019-05-06T21:18:12.482Z,8.10
2019-05-06T21:20:43.604Z,8.00
2019-05-06T21:23:12.150Z,8.10
2019-05-06T21:25:43.128Z,8.10
2019-05-06T21:28:12.248Z,8.10
2019-05-06T21:30:42.896Z,8.00
2019-05-06T21:33:12.615Z,8.00
2019-05-06T21:35:42.373Z,8.00
2019-05-06T21:38:12.322Z,8.10
2019-05-06T21:40:43.353Z,8.00
2019-05-06T21:43:13.132Z,8.10
2019-05-06T21:45:42.534Z,8.10
2019-05-06T21:48:13.597Z,8.10
2019-05-06T21:50:42.783Z,8.10
2019-05-06T21:53:14.454Z,8.00
2019-05-06T21:55:42.869Z,8.00
2019-05-06T21:58:12.412Z,8.00
2019-05-06T22:00:47.221Z,8.00
2019-05-06T22:03:16.425Z,8.00
2019-05-06T22:05:45.410Z,8.00
2019-05-06T22:08:14.414Z,7.90
2019-05-06T22:10:43.663Z,7.90
2019-05-06T22:13:14.691Z,7.90
2019-05-06T22:15:43.204Z,7.80
2019-05-06T22:18:12.767Z,7.90
2019-05-06T22:20:59.852Z,7.90
2019-05-06T22:23:48.944Z,7.80
2019-05-06T22:26:18.234Z,7.80
2019-05-06T22:28:47.459Z,7.80
2019-05-06T22:31:16.762Z,7.80
2019-05-06T22:33:45.680Z,7.80
2019-05-06T22:36:14.721Z,7.80
2019-05-06T22:38:44.319Z,7.70
2019-05-06T22:41:13.794Z,7.70
2019-05-06T22:43:42.790Z,7.70
2019-05-06T22:46:12.332Z,7.70
2019-05-06T22:48:43.349Z,7.70
2019-05-06T22:51:12.642Z,7.70
2019-05-06T22:53:42.584Z,7.60
2019-05-06T22:56:14.227Z,7.60
2019-05-06T22:58:43.177Z,7.70
2019-05-06T23:01:32.329Z,7.60
2019-05-06T23:04:02.014Z,7.60
2019-05-06T23:06:32.920Z,7.40
2019-05-06T23:09:02.646Z,7.40
2019-05-06T23:11:32.814Z,7.30
2019-05-06T23:14:02.688Z,7.20
2019-05-06T23:16:34.651Z,7.20
2019-05-06T23:19:02.773Z,7.10
2019-05-06T23:21:33.719Z,7.20
2019-05-06T23:24:02.642Z,7.10
2019-05-06T23:26:31.557Z,7.10
2019-05-06T23:29:02.455Z,7.10
2019-05-06T23:31:33.272Z,7.10
2019-05-06T23:34:02.275Z,7.00
2019-05-06T23:37:17.432Z,7.00
2019-05-06T23:40:22.903Z,7.00
2019-05-06T23:43:27.938Z,7.00
2019-05-06T23:46:32.793Z,6.90
2019-05-06T23:49:38.011Z,6.80
2019-05-06T23:52:43.285Z,6.60
2019-05-06T23:55:48.481Z,6.60
2019-05-06T23:58:15.957Z,6.50
